Time;durP1;ratioP1;P1;durP2;ratioP2;P2;SDS_P1;SDS_P2;PMS_P1;PMS_P2;Temp;Humidity;BMP_temperature;BMP_pressure;BME280_temperature;BME280_humidity;BME280_pressure;Samples;Min_cycle;Max_cycle;Signal;HPM_P1;HPM_P2
2023/06/22 00:01:17;;;;;;;7.40;2.87;;;20.30;99.90;;;;;;5046489;28;20449;-80
2023/06/22 00:03:45;;;;;;;5.40;2.23;;;20.30;99.90;;;;;;5045173;28;20520;-80
2023/06/22 00:06:11;;;;;;;4.17;2.90;;;20.20;99.90;;;;;;5046130;28;20450;-81
2023/06/22 00:08:40;;;;;;;6.77;2.80;;;20.10;99.90;;;;;;5045791;28;20461;-80
2023/06/22 00:11:07;;;;;;;3.83;2.33;;;19.90;99.90;;;;;;5046655;28;20478;-80
2023/06/22 00:13:34;;;;;;;4.90;2.03;;;19.80;99.90;;;;;;5050649;28;20463;-80
2023/06/22 00:16:01;;;;;;;4.40;2.83;;;19.90;99.90;;;;;;5050535;28;20452;-80
2023/06/22 00:18:27;;;;;;;9.97;2.77;;;19.80;99.90;;;;;;5049818;28;20518;-80
2023/06/22 00:20:58;;;;;;;3.87;2.70;;;19.80;99.90;;;;;;5050358;28;20510;-80
2023/06/22 00:23:25;;;;;;;5.87;2.07;;;19.80;99.90;;;;;;5048982;28;20488;-81
2023/06/22 00:25:53;;;;;;;4.00;2.97;;;19.80;99.90;;;;;;5050431;28;20480;-80
2023/06/22 00:28:20;;;;;;;4.80;1.97;;;19.70;99.90;;;;;;5046333;28;20493;-80
2023/06/22 00:30:48;;;;;;;6.07;3.40;;;19.70;99.90;;;;;;5051514;28;20992;-81
2023/06/22 00:33:15;;;;;;;6.20;2.90;;;19.70;99.90;;;;;;5052077;28;20527;-80
2023/06/22 00:35:43;;;;;;;3.87;2.17;;;19.50;99.90;;;;;;5052316;28;20476;-80
2023/06/22 00:38:10;;;;;;;4.97;2.87;;;19.40;99.90;;;;;;5051573;28;20461;-80
2023/06/22 00:40:37;;;;;;;9.30;2.30;;;19.30;99.90;;;;;;5054767;28;20445;-80
2023/06/22 00:43:07;;;;;;;5.20;2.70;;;19.30;99.90;;;;;;5053788;28;20512;-80
2023/06/22 00:45:34;;;;;;;11.13;3.40;;;19.30;99.90;;;;;;5056851;28;20583;-80
2023/06/22 00:48:02;;;;;;;8.00;2.60;;;19.30;99.90;;;;;;5064910;28;20542;-80
2023/06/22 00:50:33;;;;;;;6.80;2.57;;;19.30;99.90;;;;;;5056869;28;20453;-80
2023/06/22 00:53:02;;;;;;;6.40;2.63;;;19.30;99.90;;;;;;5053721;28;20449;-80
2023/06/22 00:55:30;;;;;;;11.70;2.50;;;19.30;99.90;;;;;;5049092;28;20441;-80
2023/06/22 00:57:57;;;;;;;5.93;2.90;;;19.30;99.90;;;;;;5044980;28;20554;-81
2023/06/22 01:00:26;;;;;;;6.80;2.40;;;19.30;99.90;;;;;;5046567;28;20501;-80
2023/06/22 01:02:54;;;;;;;5.00;2.40;;;19.40;99.90;;;;;;5042104;28;20484;-80
2023/06/22 01:05:21;;;;;;;7.80;2.70;;;19.40;99.90;;;;;;5049812;28;20502;-80
2023/06/22 01:08:05;;;;;;;4.33;2.70;;;19.40;99.90;;;;;;5048485;28;20496;-80
2023/06/22 01:10:39;;;;;;;7.93;2.50;;;19.50;99.90;;;;;;5048522;28;20597;-80
2023/06/22 01:13:16;;;;;;;5.50;2.43;;;19.50;99.90;;;;;;5046432;28;20461;-80
2023/06/22 01:15:49;;;;;;;7.20;2.40;;;19.50;99.90;;;;;;5040795;28;20496;-80
2023/06/22 01:18:17;;;;;;;8.53;3.67;;;19.50;99.90;;;;;;5048471;28;20492;-80
2023/06/22 01:20:45;;;;;;;4.20;2.50;;;19.70;99.90;;;;;;5048896;28;20528;-80
2023/06/22 01:23:28;;;;;;;2.97;2.67;;;19.40;99.90;;;;;;5049155;28;20497;-80
2023/06/22 01:26:03;;;;;;;5.37;2.90;;;19.30;99.90;;;;;;5048810;28;21052;-81
2023/06/22 01:28:47;;;;;;;7.20;3.23;;;19.20;99.90;;;;;;5048241;28;21041;-81
2023/06/22 01:31:17;;;;;;;4.30;2.80;;;19.10;99.90;;;;;;5048938;28;20567;-81
2023/06/22 01:33:48;;;;;;;5.13;2.80;;;19.10;99.90;;;;;;5044878;28;20510;-79
2023/06/22 01:36:17;;;;;;;4.33;2.00;;;18.80;99.90;;;;;;5048601;28;20575;-79
2023/06/22 01:38:45;;;;;;;7.03;3.10;;;18.60;99.90;;;;;;5048191;28;20552;-79
2023/06/22 01:41:13;;;;;;;5.47;2.90;;;18.40;99.90;;;;;;5048242;28;20557;-79
2023/06/22 01:43:41;;;;;;;4.23;3.50;;;18.40;99.90;;;;;;5048065;28;20538;-80
2023/06/22 01:46:10;;;;;;;7.87;3.10;;;18.30;99.90;;;;;;5047480;28;20544;-79
2023/06/22 01:48:38;;;;;;;9.87;3.43;;;18.30;99.90;;;;;;5048582;28;20555;-79
2023/06/22 01:51:05;;;;;;;8.00;3.20;;;18.40;99.90;;;;;;5048383;28;20530;-79
2023/06/22 01:53:32;;;;;;;9.00;3.10;;;18.60;99.90;;;;;;5047099;28;20550;-79
2023/06/22 01:56:00;;;;;;;7.67;2.63;;;18.80;99.90;;;;;;5049452;28;20451;-80
2023/06/22 01:58:28;;;;;;;5.87;3.80;;;18.90;99.90;;;;;;5047663;28;20526;-79
2023/06/22 02:01:03;;;;;;;7.83;3.90;;;18.90;99.90;;;;;;5048474;28;20485;-80
2023/06/22 02:03:35;;;;;;;5.13;2.80;;;18.90;99.90;;;;;;5047848;28;20833;-79
2023/06/22 02:06:06;;;;;;;7.20;3.53;;;18.90;99.90;;;;;;5047961;28;20445;-79
2023/06/22 02:08:37;;;;;;;9.13;3.53;;;18.90;99.90;;;;;;5052166;28;20469;-79
2023/06/22 02:11:06;;;;;;;3.20;2.70;;;18.90;99.90;;;;;;5071079;28;20480;-80
2023/06/22 02:13:34;;;;;;;13.13;3.67;;;18.90;99.90;;;;;;5054771;28;20451;-80
2023/06/22 02:16:02;;;;;;;5.63;3.20;;;18.90;99.90;;;;;;5040713;28;20479;-79
2023/06/22 02:18:29;;;;;;;7.57;3.00;;;18.90;99.90;;;;;;5047706;28;20446;-79
2023/06/22 02:20:57;;;;;;;11.43;3.57;;;18.90;99.90;;;;;;5048372;28;20963;-79
2023/06/22 02:23:24;;;;;;;6.77;3.33;;;19.00;99.90;;;;;;5047804;28;20477;-79
2023/06/22 02:25:51;;;;;;;4.10;2.60;;;19.00;99.90;;;;;;5046904;28;21007;-79
2023/06/22 02:28:18;;;;;;;6.37;3.07;;;19.00;99.90;;;;;;5047853;28;20995;-79
2023/06/22 02:30:45;;;;;;;3.67;2.43;;;19.10;99.90;;;;;;5044833;28;20464;-79
2023/06/22 02:33:12;;;;;;;2.87;2.57;;;19.10;99.90;;;;;;5046639;28;20449;-79
2023/06/22 02:35:39;;;;;;;5.50;3.47;;;19.00;99.90;;;;;;5047024;28;20497;-80
2023/06/22 02:38:08;;;;;;;4.27;3.00;;;19.00;99.90;;;;;;5047224;28;20463;-79
2023/06/22 02:40:35;;;;;;;4.53;2.40;;;19.00;99.90;;;;;;5047571;28;20523;-79
2023/06/22 02:43:02;;;;;;;4.40;3.27;;;18.90;99.90;;;;;;5045999;28;20503;-79
2023/06/22 02:45:30;;;;;;;6.10;2.30;;;18.80;99.90;;;;;;5046889;28;20651;-79
2023/06/22 02:47:57;;;;;;;5.23;3.10;;;18.80;99.90;;;;;;5046981;28;20456;-79
2023/06/22 02:50:24;;;;;;;5.10;2.20;;;18.70;99.90;;;;;;5046817;28;20511;-78
2023/06/22 02:52:51;;;;;;;4.47;2.70;;;18.60;99.90;;;;;;5046400;28;20492;-79
2023/06/22 02:55:19;;;;;;;5.73;2.33;;;18.60;99.90;;;;;;5044189;28;20452;-79
2023/06/22 02:57:47;;;;;;;7.10;3.23;;;18.60;99.90;;;;;;5045923;28;20493;-79
2023/06/22 03:00:17;;;;;;;5.43;2.80;;;18.40;99.90;;;;;;5047628;28;20477;-79
2023/06/22 03:02:45;;;;;;;5.83;3.23;;;18.40;99.90;;;;;;5046184;28;20547;-79
2023/06/22 03:05:13;;;;;;;5.50;3.40;;;18.30;99.90;;;;;;5046204;28;20495;-79
2023/06/22 03:07:41;;;;;;;5.23;3.27;;;18.20;99.90;;;;;;5043263;28;20960;-79
2023/06/22 03:10:10;;;;;;;6.70;3.30;;;18.30;99.90;;;;;;5045169;28;20536;-79
2023/06/22 03:12:38;;;;;;;5.37;3.50;;;18.30;99.90;;;;;;5041884;28;20471;-78
2023/06/22 03:15:07;;;;;;;11.77;4.17;;;18.30;99.90;;;;;;5044246;28;20449;-79
2023/06/22 03:17:35;;;;;;;5.40;3.17;;;18.40;99.90;;;;;;5045950;28;20453;-79
2023/06/22 03:20:06;;;;;;;5.30;2.67;;;18.40;99.90;;;;;;5045541;28;20494;-80
2023/06/22 03:22:34;;;;;;;6.63;3.00;;;18.50;99.90;;;;;;5045700;28;20528;-80
2023/06/22 03:25:00;;;;;;;5.23;4.00;;;18.40;99.90;;;;;;5046405;28;20484;-79
2023/06/22 03:27:27;;;;;;;8.23;4.10;;;18.40;99.90;;;;;;5047550;28;21102;-80
2023/06/22 03:29:57;;;;;;;7.40;4.43;;;18.40;99.90;;;;;;5046968;28;21211;-79
2023/06/22 03:32:25;;;;;;;5.20;2.70;;;18.50;99.90;;;;;;5045594;28;20529;-79
2023/06/22 03:34:52;;;;;;;5.13;3.03;;;18.50;99.90;;;;;;5048450;28;20463;-80
2023/06/22 03:37:19;;;;;;;10.47;3.87;;;18.50;99.90;;;;;;5049066;28;21222;-80
2023/06/22 03:39:46;;;;;;;6.33;3.50;;;18.50;99.90;;;;;;5051608;28;20500;-80
2023/06/22 03:42:13;;;;;;;11.33;3.77;;;18.60;99.90;;;;;;5052373;28;20455;-79
2023/06/22 03:44:39;;;;;;;10.50;3.83;;;18.60;99.90;;;;;;5066531;28;20464;-80
2023/06/22 03:47:09;;;;;;;6.17;4.07;;;18.60;99.90;;;;;;5055064;28;20464;-79
2023/06/22 03:49:36;;;;;;;7.67;3.57;;;18.60;99.90;;;;;;5051779;28;20928;-79
2023/06/22 03:52:03;;;;;;;8.80;3.00;;;18.70;99.90;;;;;;5043183;28;21190;-79
2023/06/22 03:54:31;;;;;;;8.33;5.07;;;18.80;99.90;;;;;;5045851;28;20987;-79
2023/06/22 03:56:59;;;;;;;11.40;4.10;;;18.90;99.90;;;;;;5043737;28;21123;-80
2023/06/22 03:59:26;;;;;;;5.20;3.33;;;19.00;99.90;;;;;;5036536;28;20588;-79
2023/06/22 04:01:53;;;;;;;5.23;2.93;;;19.20;99.90;;;;;;5040768;28;20538;-79
2023/06/22 04:04:21;;;;;;;7.50;3.33;;;19.20;99.90;;;;;;5041019;28;20520;-79
2023/06/22 04:06:48;;;;;;;6.20;2.83;;;19.20;99.90;;;;;;5043094;28;20473;-79
2023/06/22 04:09:16;;;;;;;3.80;3.10;;;19.20;99.90;;;;;;5034110;28;20554;-80
2023/06/22 04:11:43;;;;;;;3.07;2.77;;;19.30;99.90;;;;;;5040504;28;21100;-80
2023/06/22 04:14:09;;;;;;;5.63;4.00;;;19.30;99.90;;;;;;5041591;28;20477;-80
2023/06/22 04:16:36;;;;;;;7.13;3.73;;;19.30;99.90;;;;;;5041292;28;20505;-79
2023/06/22 04:19:03;;;;;;;6.27;4.00;;;19.40;99.90;;;;;;5041990;28;20664;-79
2023/06/22 04:21:32;;;;;;;13.77;5.13;;;19.40;99.90;;;;;;5032048;28;21272;-79
2023/06/22 04:23:59;;;;;;;9.83;4.13;;;19.20;99.90;;;;;;5040440;28;20563;-79
2023/06/22 04:26:26;;;;;;;9.57;3.80;;;19.30;99.90;;;;;;5042247;28;21157;-80
2023/06/22 04:28:55;;;;;;;8.60;4.70;;;19.40;99.90;;;;;;5035291;28;20518;-79
2023/06/22 04:31:31;;;;;;;4.13;3.53;;;19.50;99.90;;;;;;5044203;28;20469;-79
2023/06/22 04:34:05;;;;;;;8.03;3.93;;;19.60;99.90;;;;;;5043751;28;20465;-79
2023/06/22 04:36:37;;;;;;;4.43;2.90;;;19.60;99.90;;;;;;5039554;28;20472;-79
2023/06/22 04:39:05;;;;;;;4.20;2.70;;;19.70;99.90;;;;;;5042039;28;21216;-79
2023/06/22 04:41:41;;;;;;;8.23;4.10;;;19.70;99.90;;;;;;5042488;28;20460;-79
2023/06/22 04:44:10;;;;;;;5.03;3.47;;;19.70;99.90;;;;;;5036245;28;20478;-81
2023/06/22 04:46:37;;;;;;;7.60;3.90;;;19.80;99.90;;;;;;5040446;28;20995;-80
2023/06/22 04:49:09;;;;;;;5.17;3.50;;;19.70;99.90;;;;;;5044407;28;20464;-80
2023/06/22 04:51:43;;;;;;;12.30;5.57;;;19.80;99.90;;;;;;5041761;28;20559;-80
2023/06/22 04:54:10;;;;;;;6.70;4.37;;;19.80;99.90;;;;;;5042190;28;20492;-80
2023/06/22 04:56:40;;;;;;;3.27;2.97;;;19.90;99.90;;;;;;5047956;28;20972;-80
2023/06/22 04:59:08;;;;;;;11.20;4.20;;;20.00;99.90;;;;;;5046016;28;20490;-80
2023/06/22 05:01:35;;;;;;;5.83;3.93;;;20.20;99.90;;;;;;5044535;28;20554;-80
2023/06/22 05:04:03;;;;;;;8.33;3.80;;;20.30;99.90;;;;;;5043079;28;20481;-80
2023/06/22 05:06:30;;;;;;;11.00;3.50;;;20.40;99.90;;;;;;5044910;28;20858;-80
2023/06/22 05:08:59;;;;;;;9.70;3.57;;;20.40;99.90;;;;;;5065764;28;20465;-82
2023/06/22 05:11:26;;;;;;;7.33;3.53;;;20.40;99.90;;;;;;5059421;28;20475;-81
2023/06/22 05:13:54;;;;;;;9.93;4.43;;;20.50;99.90;;;;;;5047496;28;20456;-81
2023/06/22 05:16:23;;;;;;;8.47;4.00;;;20.60;99.90;;;;;;5051186;28;20446;-81
2023/06/22 05:18:53;;;;;;;7.03;4.37;;;20.80;99.90;;;;;;5048773;28;20461;-82
2023/06/22 05:21:22;;;;;;;10.27;3.87;;;21.00;99.90;;;;;;5047439;28;20465;-81
2023/06/22 05:23:49;;;;;;;9.40;4.37;;;21.00;99.90;;;;;;5045930;28;20485;-81
2023/06/22 05:26:17;;;;;;;9.93;4.43;;;21.10;99.90;;;;;;5048336;28;21252;-81
2023/06/22 05:28:46;;;;;;;8.13;4.70;;;21.20;99.90;;;;;;5050669;28;21054;-81
2023/06/22 05:31:13;;;;;;;5.03;4.10;;;21.30;99.90;;;;;;5049770;28;20985;-81
2023/06/22 05:33:41;;;;;;;9.10;4.50;;;21.50;99.90;;;;;;5039534;28;20465;-81
2023/06/22 05:36:08;;;;;;;6.67;3.93;;;21.80;99.90;;;;;;5047127;28;20469;-81
2023/06/22 05:38:35;;;;;;;9.73;3.33;;;22.00;99.90;;;;;;5050145;28;20492;-81
2023/06/22 05:41:02;;;;;;;9.03;4.70;;;22.20;99.90;;;;;;5048994;28;20546;-82
2023/06/22 05:43:30;;;;;;;12.80;3.93;;;22.10;99.90;;;;;;5045994;28;20512;-79
2023/06/22 05:45:57;;;;;;;6.43;3.87;;;22.20;99.90;;;;;;5044893;28;21019;-82
2023/06/22 05:48:24;;;;;;;8.03;3.93;;;22.20;99.90;;;;;;5046834;28;20461;-82
2023/06/22 05:50:51;;;;;;;7.73;3.70;;;22.40;99.90;;;;;;5042507;28;20498;-80
2023/06/22 05:53:18;;;;;;;9.00;4.10;;;22.40;99.90;;;;;;5048142;28;20477;-80
2023/06/22 05:55:45;;;;;;;9.03;3.53;;;22.50;99.90;;;;;;5048276;28;20489;-81
2023/06/22 05:58:13;;;;;;;8.50;3.63;;;22.60;99.90;;;;;;5047367;28;20554;-80
2023/06/22 06:00:41;;;;;;;4.63;3.90;;;22.70;99.90;;;;;;5048966;28;20967;-81
2023/06/22 06:03:08;;;;;;;10.03;5.07;;;22.80;99.90;;;;;;5048361;28;20466;-81
2023/06/22 06:05:36;;;;;;;5.83;4.10;;;22.80;99.90;;;;;;5043789;28;20629;-82
2023/06/22 06:08:04;;;;;;;7.53;3.90;;;23.00;99.90;;;;;;5044544;28;20473;-81
2023/06/22 06:10:32;;;;;;;8.30;4.83;;;22.90;99.90;;;;;;5048466;28;20886;-81
2023/06/22 06:13:01;;;;;;;4.10;3.77;;;23.00;99.90;;;;;;5047637;28;20461;-82
2023/06/22 06:15:28;;;;;;;11.53;4.57;;;23.10;99.90;;;;;;5050306;28;20569;-80
2023/06/22 06:17:57;;;;;;;7.67;4.73;;;23.10;99.90;;;;;;5047685;28;20566;-81
2023/06/22 06:20:25;;;;;;;9.03;4.37;;;23.30;99.90;;;;;;5047250;28;20457;-80
2023/06/22 06:22:53;;;;;;;7.00;4.10;;;23.40;98.90;;;;;;5049511;28;20460;-81
2023/06/22 06:25:21;;;;;;;6.33;3.60;;;23.70;99.10;;;;;;5051428;28;20476;-81
2023/06/22 06:27:49;;;;;;;12.17;4.67;;;23.80;97.90;;;;;;5050148;28;20446;-80
2023/06/22 06:30:18;;;;;;;11.30;4.40;;;23.80;99.60;;;;;;5057244;28;20484;-80
2023/06/22 06:32:46;;;;;;;5.07;4.00;;;24.00;96.40;;;;;;5068384;28;20474;-81
2023/06/22 06:35:16;;;;;;;9.73;3.70;;;23.90;98.00;;;;;;5070208;28;20769;-81
2023/06/22 06:37:45;;;;;;;6.20;4.00;;;23.90;98.50;;;;;;5056935;28;20442;-80
2023/06/22 06:40:13;;;;;;;7.30;3.80;;;24.00;97.80;;;;;;5051997;28;20490;-82
2023/06/22 06:42:44;;;;;;;6.57;3.30;;;24.20;97.70;;;;;;5050553;28;20504;-80
2023/06/22 06:45:11;;;;;;;7.40;3.63;;;24.30;97.70;;;;;;5042961;28;20485;-81
2023/06/22 06:47:38;;;;;;;5.80;3.50;;;24.30;97.30;;;;;;5047321;28;20863;-81
2023/06/22 06:50:07;;;;;;;4.47;3.27;;;24.50;97.20;;;;;;5045587;28;21000;-81
2023/06/22 06:52:35;;;;;;;7.00;2.77;;;24.60;96.70;;;;;;5045714;28;20476;-81
2023/06/22 06:55:04;;;;;;;8.37;4.87;;;24.60;96.40;;;;;;5045711;28;20482;-80
2023/06/22 06:57:32;;;;;;;6.07;3.50;;;24.70;96.20;;;;;;5044306;28;20462;-81
2023/06/22 06:59:59;;;;;;;5.47;2.90;;;24.80;96.00;;;;;;5047381;28;20545;-80
2023/06/22 07:02:27;;;;;;;3.80;3.20;;;24.70;95.80;;;;;;5046427;28;20508;-80
2023/06/22 07:04:56;;;;;;;5.93;2.80;;;25.10;94.90;;;;;;5047201;28;20490;-80
2023/06/22 07:07:24;;;;;;;6.47;3.63;;;25.20;94.90;;;;;;5045861;28;20475;-82
2023/06/22 07:09:53;;;;;;;5.20;3.13;;;25.60;94.20;;;;;;5047003;28;20455;-81
2023/06/22 07:12:20;;;;;;;3.77;3.00;;;25.50;93.60;;;;;;5046056;28;20481;-82
2023/06/22 07:14:46;;;;;;;5.30;4.87;;;25.50;93.40;;;;;;5044083;28;20901;-80
2023/06/22 07:17:13;;;;;;;4.37;3.97;;;25.50;93.00;;;;;;5046031;28;20830;-81
2023/06/22 07:19:42;;;;;;;6.23;3.63;;;25.50;93.90;;;;;;5045545;28;20503;-81
2023/06/22 07:22:09;;;;;;;14.33;4.47;;;25.90;94.30;;;;;;5043127;28;20838;-84
2023/06/22 07:24:36;;;;;;;4.83;3.67;;;26.00;93.00;;;;;;5046757;28;20488;-81
2023/06/22 07:27:06;;;;;;;3.93;3.50;;;26.30;92.10;;;;;;5046860;28;21045;-81
2023/06/22 07:29:33;;;;;;;4.60;3.53;;;26.40;92.20;;;;;;5046997;28;20944;-80
2023/06/22 07:32:00;;;;;;;7.40;3.10;;;26.20;91.90;;;;;;5046451;28;20496;-80
2023/06/22 07:34:27;;;;;;;6.27;3.73;;;26.40;92.30;;;;;;5046358;28;20456;-80
2023/06/22 07:36:54;;;;;;;3.83;3.47;;;26.20;92.60;;;;;;5046280;28;20989;-81
2023/06/22 07:39:25;;;;;;;4.27;3.40;;;26.20;92.90;;;;;;5045822;28;20501;-81
2023/06/22 07:41:52;;;;;;;4.00;3.60;;;26.50;91.80;;;;;;5045993;28;20464;-81
2023/06/22 07:44:20;;;;;;;4.00;2.73;;;26.70;89.90;;;;;;5046085;28;20893;-81
2023/06/22 07:46:47;;;;;;;5.90;3.40;;;26.80;90.80;;;;;;5046271;28;20808;-81
2023/06/22 07:49:14;;;;;;;5.33;4.07;;;27.10;91.30;;;;;;5046351;28;20473;-81
2023/06/22 07:51:41;;;;;;;7.77;3.33;;;26.90;92.20;;;;;;5042989;28;20452;-80
2023/06/22 07:54:09;;;;;;;5.27;3.70;;;27.10;90.40;;;;;;5046404;28;20598;-81
2023/06/22 07:56:37;;;;;;;4.70;3.37;;;27.00;90.00;;;;;;5055130;28;20445;-80
2023/06/22 07:59:04;;;;;;;4.20;3.50;;;26.70;91.40;;;;;;5065330;28;21035;-82
2023/06/22 08:01:33;;;;;;;7.30;3.17;;;26.50;90.90;;;;;;5059942;28;20537;-83
2023/06/22 08:04:00;;;;;;;4.20;3.43;;;26.20;91.80;;;;;;5048000;28;20483;-81
2023/06/22 08:06:27;;;;;;;5.20;3.30;;;26.30;91.40;;;;;;5045519;28;20492;-80
2023/06/22 08:08:56;;;;;;;6.43;4.00;;;26.20;91.80;;;;;;5046603;28;21029;-81
2023/06/22 08:11:25;;;;;;;5.93;4.13;;;26.60;93.30;;;;;;5045528;28;20561;-80
2023/06/22 08:13:52;;;;;;;3.47;3.20;;;27.00;91.80;;;;;;5045345;28;20535;-81
2023/06/22 08:16:19;;;;;;;5.60;3.60;;;27.20;91.30;;;;;;5046324;28;21051;-81
2023/06/22 08:18:48;;;;;;;3.80;3.30;;;27.20;91.40;;;;;;5046694;28;20492;-81
2023/06/22 08:21:15;;;;;;;4.80;3.40;;;27.50;91.30;;;;;;5042748;28;20474;-80
2023/06/22 08:23:42;;;;;;;7.87;4.23;;;27.70;87.10;;;;;;5046560;28;20461;-81
2023/06/22 08:26:09;;;;;;;6.50;3.73;;;27.70;89.10;;;;;;5045148;28;21033;-81
2023/06/22 08:28:36;;;;;;;5.87;3.10;;;27.60;89.90;;;;;;5046729;28;20475;-80
2023/06/22 08:31:03;;;;;;;7.80;3.80;;;27.90;90.20;;;;;;5045972;28;20968;-80
2023/06/22 08:33:30;;;;;;;5.20;3.13;;;28.20;87.50;;;;;;5049810;28;20448;-81
2023/06/22 08:35:59;;;;;;;6.60;4.10;;;27.90;86.20;;;;;;5049383;28;20473;-79
2023/06/22 08:38:26;;;;;;;4.40;3.13;;;28.10;85.80;;;;;;5050557;28;20922;-80
2023/06/22 08:40:53;;;;;;;5.43;3.33;;;28.10;88.60;;;;;;5046060;28;20444;-80
2023/06/22 08:43:20;;;;;;;3.50;3.07;;;28.00;87.40;;;;;;5049833;28;20486;-79
2023/06/22 08:45:47;;;;;;;9.23;3.90;;;27.60;87.70;;;;;;5048672;28;21003;-81
2023/06/22 08:48:14;;;;;;;4.57;3.03;;;27.60;90.90;;;;;;5049802;28;20478;-81
2023/06/22 08:50:41;;;;;;;4.07;2.93;;;27.50;88.30;;;;;;5050402;28;20484;-82
2023/06/22 08:53:10;;;;;;;6.97;4.00;;;28.00;87.20;;;;;;5048382;28;20501;-81
2023/06/22 08:55:37;;;;;;;5.50;3.67;;;28.30;90.20;;;;;;5049363;28;20517;-79
2023/06/22 08:58:04;;;;;;;4.50;3.67;;;28.60;88.80;;;;;;5046276;28;20463;-79
2023/06/22 09:00:34;;;;;;;4.73;3.37;;;28.60;82.80;;;;;;5047458;28;20475;-80
2023/06/22 09:03:01;;;;;;;4.00;3.40;;;28.90;86.20;;;;;;5043067;28;20464;-80
2023/06/22 09:05:28;;;;;;;5.83;3.50;;;28.90;83.60;;;;;;5050550;28;20520;-81
2023/06/22 09:07:58;;;;;;;3.60;3.00;;;29.10;84.10;;;;;;5051279;28;20480;-79
2023/06/22 09:10:26;;;;;;;4.33;3.30;;;29.40;81.90;;;;;;5049886;28;20470;-79
2023/06/22 09:12:53;;;;;;;5.93;4.03;;;29.40;79.20;;;;;;5052426;28;20480;-80
2023/06/22 09:15:21;;;;;;;5.60;4.67;;;29.00;79.40;;;;;;5048608;28;20514;-79
2023/06/22 09:17:48;;;;;;;4.40;3.40;;;29.00;81.20;;;;;;5053782;28;20452;-79
2023/06/22 09:20:15;;;;;;;7.10;3.97;;;29.10;81.60;;;;;;5062852;28;20916;-78
2023/06/22 09:22:42;;;;;;;3.10;2.80;;;29.10;80.60;;;;;;5068964;28;20931;-79
2023/06/22 09:25:11;;;;;;;4.63;3.40;;;29.30;79.10;;;;;;5063206;28;21030;-79
2023/06/22 09:27:39;;;;;;;5.90;3.90;;;29.20;79.50;;;;;;5051976;28;20468;-79
2023/06/22 09:30:07;;;;;;;4.97;4.27;;;29.40;77.20;;;;;;5051928;28;20505;-79
2023/06/22 09:32:34;;;;;;;8.53;4.77;;;29.50;76.80;;;;;;5049819;28;20514;-80
2023/06/22 09:35:06;;;;;;;7.57;3.53;;;29.80;75.30;;;;;;5048856;28;20498;-79
2023/06/22 09:37:33;;;;;;;4.10;3.70;;;30.20;75.10;;;;;;5037630;28;20453;-79
2023/06/22 09:40:00;;;;;;;4.70;3.70;;;29.90;71.30;;;;;;5049201;28;20472;-79
2023/06/22 09:42:27;;;;;;;8.60;4.10;;;29.70;73.50;;;;;;5049427;28;20477;-80
2023/06/22 09:44:55;;;;;;;10.97;5.43;;;29.90;73.50;;;;;;5049152;28;20453;-81
2023/06/22 09:47:22;;;;;;;6.60;3.63;;;29.90;73.30;;;;;;5043440;28;20627;-81
2023/06/22 09:49:49;;;;;;;7.43;3.90;;;29.80;72.50;;;;;;5048471;28;20481;-80
2023/06/22 09:52:17;;;;;;;3.20;2.67;;;30.10;75.40;;;;;;5047840;28;21003;-80
2023/06/22 09:54:44;;;;;;;6.33;3.57;;;30.10;75.00;;;;;;5048559;28;20445;-81
2023/06/22 09:57:11;;;;;;;4.03;3.73;;;30.20;70.80;;;;;;5046008;28;20493;-80
2023/06/22 09:59:38;;;;;;;8.03;4.07;;;30.10;71.90;;;;;;5047880;28;20481;-80
2023/06/22 10:02:07;;;;;;;4.80;3.50;;;30.30;69.60;;;;;;5043341;28;20473;-80
2023/06/22 10:04:34;;;;;;;9.27;5.30;;;30.30;74.00;;;;;;5048339;28;20450;-80
2023/06/22 10:07:01;;;;;;;5.97;3.90;;;30.50;71.60;;;;;;5045496;28;20915;-79
2023/06/22 10:09:28;;;;;;;5.50;3.27;;;30.70;70.00;;;;;;5046490;28;21209;-79
2023/06/22 10:11:55;;;;;;;6.23;4.00;;;30.50;70.10;;;;;;5044981;28;20453;-78
2023/06/22 10:14:22;;;;;;;6.67;3.57;;;30.40;65.60;;;;;;5048141;28;20507;-78
2023/06/22 10:16:49;;;;;;;10.20;3.90;;;30.40;71.60;;;;;;5047590;28;20497;-79
2023/06/22 10:19:18;;;;;;;5.13;3.83;;;30.70;70.80;;;;;;5048018;28;20480;-79
2023/06/22 10:21:45;;;;;;;3.70;3.40;;;30.70;68.90;;;;;;5047991;28;20473;-78
2023/06/22 10:24:12;;;;;;;5.30;3.00;;;31.00;68.80;;;;;;5047269;28;20493;-80
2023/06/22 10:26:39;;;;;;;4.50;4.07;;;31.00;70.00;;;;;;5048243;28;20485;-79
2023/06/22 10:29:05;;;;;;;3.70;3.37;;;31.40;67.20;;;;;;5048661;28;20542;-79
2023/06/22 10:31:32;;;;;;;8.57;3.53;;;31.10;65.40;;;;;;5047090;28;20970;-78
2023/06/22 10:33:59;;;;;;;5.70;3.63;;;30.70;72.70;;;;;;5047138;28;20488;-79
2023/06/22 10:36:28;;;;;;;4.43;3.10;;;31.10;72.30;;;;;;5048675;28;20481;-78
2023/06/22 10:38:59;;;;;;;6.23;3.77;;;31.20;69.60;;;;;;5047713;28;20465;-78
2023/06/22 10:41:26;;;;;;;8.60;4.30;;;31.10;68.30;;;;;;5044438;28;20477;-79
2023/06/22 10:43:52;;;;;;;5.90;3.57;;;31.10;67.70;;;;;;5055489;28;20474;-78
2023/06/22 10:46:19;;;;;;;5.97;3.73;;;31.50;67.30;;;;;;5061924;28;20539;-79
2023/06/22 10:48:46;;;;;;;7.97;4.57;;;31.30;70.30;;;;;;5057912;28;20449;-79
2023/06/22 10:51:13;;;;;;;8.03;3.93;;;31.40;64.10;;;;;;5051117;28;20445;-79
2023/06/22 10:53:43;;;;;;;5.90;3.73;;;31.40;65.20;;;;;;5044336;28;20495;-79
2023/06/22 10:56:09;;;;;;;5.73;3.77;;;31.10;67.50;;;;;;5042718;28;20952;-79
2023/06/22 10:58:36;;;;;;;4.37;3.47;;;31.20;67.60;;;;;;5043169;28;20504;-78
2023/06/22 11:01:03;;;;;;;7.63;4.37;;;31.30;69.70;;;;;;5038363;28;20474;-78
2023/06/22 11:03:30;;;;;;;9.90;3.97;;;31.30;71.30;;;;;;5039200;28;20557;-79
2023/06/22 11:05:57;;;;;;;5.60;3.93;;;31.50;70.10;;;;;;5035757;28;20486;-79
2023/06/22 11:08:24;;;;;;;8.70;4.90;;;31.70;69.10;;;;;;5044763;28;20976;-78
2023/06/22 11:10:53;;;;;;;3.97;3.67;;;31.80;62.40;;;;;;5048031;28;20445;-79
2023/06/22 11:13:20;;;;;;;5.07;3.23;;;31.70;67.60;;;;;;5047300;28;20484;-79
2023/06/22 11:15:47;;;;;;;5.60;4.30;;;31.80;66.90;;;;;;5046667;28;20504;-79
2023/06/22 11:18:14;;;;;;;7.33;4.80;;;31.70;63.10;;;;;;5046840;28;20959;-79
2023/06/22 11:20:41;;;;;;;6.63;3.87;;;31.80;65.90;;;;;;5046242;28;20816;-80
2023/06/22 11:23:08;;;;;;;5.77;4.97;;;31.80;67.40;;;;;;5046801;28;20481;-81
2023/06/22 11:25:35;;;;;;;6.47;4.23;;;31.90;65.90;;;;;;5042968;28;21205;-80
2023/06/22 11:28:04;;;;;;;7.47;4.50;;;32.00;68.10;;;;;;5046570;28;20596;-81
2023/06/22 11:30:32;;;;;;;7.33;4.93;;;31.90;67.40;;;;;;5046479;28;20947;-80
2023/06/22 11:32:59;;;;;;;6.37;4.17;;;31.50;66.10;;;;;;5045651;28;20562;-81
2023/06/22 11:35:27;;;;;;;4.93;3.83;;;31.30;67.70;;;;;;5046562;28;21134;-80
2023/06/22 11:37:53;;;;;;;5.40;4.63;;;31.10;69.10;;;;;;5046174;28;20497;-80
2023/06/22 11:40:22;;;;;;;4.90;4.50;;;31.40;72.00;;;;;;5046515;28;20449;-81
2023/06/22 11:42:49;;;;;;;6.40;5.90;;;31.70;71.40;;;;;;5042004;28;20548;-81
2023/06/22 11:45:18;;;;;;;6.60;4.97;;;32.10;67.50;;;;;;5046257;28;20501;-80
2023/06/22 11:47:46;;;;;;;5.60;5.00;;;31.90;65.40;;;;;;5046532;28;20481;-81
2023/06/22 11:50:13;;;;;;;8.33;5.40;;;31.80;66.80;;;;;;5047916;28;20444;-80
2023/06/22 11:52:39;;;;;;;7.80;3.70;;;32.00;65.80;;;;;;5047401;28;20543;-81
2023/06/22 11:55:07;;;;;;;8.67;3.90;;;32.10;67.20;;;;;;5047812;28;20960;-79
2023/06/22 11:57:35;;;;;;;12.23;5.43;;;32.20;66.10;;;;;;5047419;28;20469;-80
2023/06/22 12:00:06;;;;;;;8.67;5.03;;;32.20;69.80;;;;;;5048971;28;20473;-81
2023/06/22 12:02:34;;;;;;;7.10;3.40;;;32.20;66.80;;;;;;5049813;28;20484;-80
2023/06/22 12:05:04;;;;;;;5.03;3.97;;;32.10;66.60;;;;;;5049602;28;20461;-81
2023/06/22 12:07:31;;;;;;;11.27;5.10;;;32.20;66.70;;;;;;5063670;28;20600;-80
2023/06/22 12:09:58;;;;;;;7.00;4.70;;;32.50;65.50;;;;;;5069347;28;20497;-82
2023/06/22 12:12:25;;;;;;;6.00;4.40;;;32.50;65.20;;;;;;5063792;28;20507;-79
2023/06/22 12:14:52;;;;;;;5.57;4.60;;;32.00;65.30;;;;;;5046932;28;20483;-81
2023/06/22 12:17:19;;;;;;;6.73;4.90;;;31.70;66.10;;;;;;5049585;28;20936;-80
2023/06/22 12:19:47;;;;;;;9.37;4.90;;;31.90;65.60;;;;;;5041632;28;20481;-79
2023/06/22 12:22:14;;;;;;;7.00;5.17;;;31.90;68.10;;;;;;5049193;28;20521;-79
2023/06/22 12:24:41;;;;;;;6.70;3.97;;;31.90;68.70;;;;;;5049226;28;21156;-79
2023/06/22 12:27:08;;;;;;;9.63;4.73;;;32.20;66.40;;;;;;5044792;28;20531;-80
2023/06/22 12:29:35;;;;;;;6.17;5.27;;;32.30;67.40;;;;;;5049266;28;20456;-80
2023/06/22 12:32:02;;;;;;;11.80;5.20;;;32.50;65.30;;;;;;5042596;28;20523;-79
2023/06/22 12:34:28;;;;;;;4.77;4.30;;;32.70;64.20;;;;;;5048983;28;20452;-80
2023/06/22 12:36:57;;;;;;;8.13;4.30;;;32.00;62.70;;;;;;5050461;28;20537;-80
2023/06/22 12:39:24;;;;;;;7.03;4.27;;;32.10;65.70;;;;;;5048678;28;20484;-79
2023/06/22 12:41:50;;;;;;;9.60;4.83;;;32.30;67.90;;;;;;5046492;28;20489;-79
2023/06/22 12:44:18;;;;;;;5.60;4.43;;;32.10;66.00;;;;;;5049523;28;20457;-80
2023/06/22 12:46:45;;;;;;;11.57;6.07;;;32.20;65.10;;;;;;5049474;28;20549;-80
2023/06/22 12:49:12;;;;;;;9.03;4.97;;;32.10;68.00;;;;;;5047138;28;20500;-79